sensor_id;sensor_type;location;lat;lon;timestamp;temperature;humidity
16643;DHT22;8435;52.184;5.406;2023-04-29T00:01:30;12.90;99.90
16643;DHT22;8435;52.184;5.406;2023-04-29T00:04:00;12.90;99.90
16643;DHT22;8435;52.184;5.406;2023-04-29T00:06:27;12.90;99.90
16643;DHT22;8435;52.184;5.406;2023-04-29T00:08:54;12.90;99.90
16643;DHT22;8435;52.184;5.406;2023-04-29T00:11:21;13.00;99.90
16643;DHT22;8435;52.184;5.406;2023-04-29T00:13:49;12.90;99.90
16643;DHT22;8435;52.184;5.406;2023-04-29T00:16:19;13.00;99.90
16643;DHT22;8435;52.184;5.406;2023-04-29T00:18:46;12.90;99.90
16643;DHT22;8435;52.184;5.406;2023-04-29T00:21:13;13.00;99.90
16643;DHT22;8435;52.184;5.406;2023-04-29T00:23:39;13.00;99.90
16643;DHT22;8435;52.184;5.406;2023-04-29T00:26:06;13.00;99.90
16643;DHT22;8435;52.184;5.406;2023-04-29T00:28:33;13.00;99.90
16643;DHT22;8435;52.184;5.406;2023-04-29T00:31:01;13.00;99.90
16643;DHT22;8435;52.184;5.406;2023-04-29T00:33:28;13.00;99.90
16643;DHT22;8435;52.184;5.406;2023-04-29T00:35:55;13.00;99.90
16643;DHT22;8435;52.184;5.406;2023-04-29T00:38:22;13.00;99.90
16643;DHT22;8435;52.184;5.406;2023-04-29T00:40:49;13.00;99.90
16643;DHT22;8435;52.184;5.406;2023-04-29T00:43:16;13.00;99.90
16643;DHT22;8435;52.184;5.406;2023-04-29T00:45:42;13.00;99.90
16643;DHT22;8435;52.184;5.406;2023-04-29T00:48:12;12.90;99.90
16643;DHT22;8435;52.184;5.406;2023-04-29T00:50:40;13.00;99.90
16643;DHT22;8435;52.184;5.406;2023-04-29T00:53:07;12.90;99.90
16643;DHT22;8435;52.184;5.406;2023-04-29T00:55:34;12.90;99.90
16643;DHT22;8435;52.184;5.406;2023-04-29T00:58:02;12.90;99.90
16643;DHT22;8435;52.184;5.406;2023-04-29T01:00:29;12.90;99.90
16643;DHT22;8435;52.184;5.406;2023-04-29T01:02:56;12.90;99.90
16643;DHT22;8435;52.184;5.406;2023-04-29T01:05:25;12.80;99.90
16643;DHT22;8435;52.184;5.406;2023-04-29T01:08:00;12.90;99.90
16643;DHT22;8435;52.184;5.406;2023-04-29T01:10:37;12.90;99.90
16643;DHT22;8435;52.184;5.406;2023-04-29T01:13:07;12.90;99.90
16643;DHT22;8435;52.184;5.406;2023-04-29T01:15:40;12.90;99.90
16643;DHT22;8435;52.184;5.406;2023-04-29T01:18:17;12.80;99.90
16643;DHT22;8435;52.184;5.406;2023-04-29T01:20:49;12.80;99.90
16643;DHT22;8435;52.184;5.406;2023-04-29T01:23:16;12.80;99.90
16643;DHT22;8435;52.184;5.406;2023-04-29T01:25:44;12.80;99.90
16643;DHT22;8435;52.184;5.406;2023-04-29T01:28:20;12.80;99.90
16643;DHT22;8435;52.184;5.406;2023-04-29T01:30:56;12.70;99.90
16643;DHT22;8435;52.184;5.406;2023-04-29T01:33:35;12.80;99.90
16643;DHT22;8435;52.184;5.406;2023-04-29T01:36:15;12.80;99.90
16643;DHT22;8435;52.184;5.406;2023-04-29T01:38:51;12.80;99.90
16643;DHT22;8435;52.184;5.406;2023-04-29T01:41:25;12.80;99.90
16643;DHT22;8435;52.184;5.406;2023-04-29T01:43:58;12.80;99.90
16643;DHT22;8435;52.184;5.406;2023-04-29T01:46:30;12.80;99.90
16643;DHT22;8435;52.184;5.406;2023-04-29T01:48:57;12.80;99.90
16643;DHT22;8435;52.184;5.406;2023-04-29T01:51:23;12.80;99.90
16643;DHT22;8435;52.184;5.406;2023-04-29T01:53:50;12.80;99.90
16643;DHT22;8435;52.184;5.406;2023-04-29T01:56:17;12.80;99.90
16643;DHT22;8435;52.184;5.406;2023-04-29T01:58:51;12.80;99.90
16643;DHT22;8435;52.184;5.406;2023-04-29T02:01:18;12.90;99.90
16643;DHT22;8435;52.184;5.406;2023-04-29T02:03:45;12.80;99.90
16643;DHT22;8435;52.184;5.406;2023-04-29T02:06:11;12.80;99.90
16643;DHT22;8435;52.184;5.406;2023-04-29T02:08:38;12.90;99.90
16643;DHT22;8435;52.184;5.406;2023-04-29T02:11:05;12.80;99.90
16643;DHT22;8435;52.184;5.406;2023-04-29T02:13:32;12.90;99.90
16643;DHT22;8435;52.184;5.406;2023-04-29T02:16:07;12.90;99.90
16643;DHT22;8435;52.184;5.406;2023-04-29T02:18:34;12.90;99.90
16643;DHT22;8435;52.184;5.406;2023-04-29T02:21:01;12.90;99.90
16643;DHT22;8435;52.184;5.406;2023-04-29T02:23:28;12.90;99.90
16643;DHT22;8435;52.184;5.406;2023-04-29T02:25:56;12.90;99.90
16643;DHT22;8435;52.184;5.406;2023-04-29T02:28:23;12.90;99.90
16643;DHT22;8435;52.184;5.406;2023-04-29T02:30:49;12.90;99.90
16643;DHT22;8435;52.184;5.406;2023-04-29T02:33:18;12.90;99.90
16643;DHT22;8435;52.184;5.406;2023-04-29T02:35:44;12.90;99.90
16643;DHT22;8435;52.184;5.406;2023-04-29T02:38:11;12.90;99.90
16643;DHT22;8435;52.184;5.406;2023-04-29T02:40:40;12.90;99.90
16643;DHT22;8435;52.184;5.406;2023-04-29T02:43:10;13.00;99.90
16643;DHT22;8435;52.184;5.406;2023-04-29T02:45:38;12.90;99.90
16643;DHT22;8435;52.184;5.406;2023-04-29T02:48:08;12.90;99.90
16643;DHT22;8435;52.184;5.406;2023-04-29T02:50:36;12.90;99.90
16643;DHT22;8435;52.184;5.406;2023-04-29T02:53:03;13.00;99.90
16643;DHT22;8435;52.184;5.406;2023-04-29T02:55:29;12.90;99.90
16643;DHT22;8435;52.184;5.406;2023-04-29T02:57:56;12.90;99.90
16643;DHT22;8435;52.184;5.406;2023-04-29T03:00:23;13.00;99.90
16643;DHT22;8435;52.184;5.406;2023-04-29T03:02:50;12.90;99.90
16643;DHT22;8435;52.184;5.406;2023-04-29T03:05:17;12.90;99.90
16643;DHT22;8435;52.184;5.406;2023-04-29T03:07:45;12.90;99.90
16643;DHT22;8435;52.184;5.406;2023-04-29T03:10:11;12.90;99.90
16643;DHT22;8435;52.184;5.406;2023-04-29T03:12:38;12.90;99.90
16643;DHT22;8435;52.184;5.406;2023-04-29T03:15:06;12.90;99.90
16643;DHT22;8435;52.184;5.406;2023-04-29T03:17:34;12.90;99.90
16643;DHT22;8435;52.184;5.406;2023-04-29T03:20:02;12.90;99.90
16643;DHT22;8435;52.184;5.406;2023-04-29T03:22:29;12.90;99.90
16643;DHT22;8435;52.184;5.406;2023-04-29T03:24:59;12.90;99.90
16643;DHT22;8435;52.184;5.406;2023-04-29T03:27:26;12.90;99.90
16643;DHT22;8435;52.184;5.406;2023-04-29T03:29:52;12.80;99.90
16643;DHT22;8435;52.184;5.406;2023-04-29T03:32:19;12.90;99.90
16643;DHT22;8435;52.184;5.406;2023-04-29T03:34:46;12.80;99.90
16643;DHT22;8435;52.184;5.406;2023-04-29T03:37:13;12.90;99.90
16643;DHT22;8435;52.184;5.406;2023-04-29T03:39:41;12.80;99.90
16643;DHT22;8435;52.184;5.406;2023-04-29T03:42:09;12.80;99.90
16643;DHT22;8435;52.184;5.406;2023-04-29T03:44:36;12.80;99.90
16643;DHT22;8435;52.184;5.406;2023-04-29T03:47:03;12.80;99.90
16643;DHT22;8435;52.184;5.406;2023-04-29T03:49:29;12.80;99.90
16643;DHT22;8435;52.184;5.406;2023-04-29T03:51:59;12.80;99.90
16643;DHT22;8435;52.184;5.406;2023-04-29T03:54:27;12.80;99.90
16643;DHT22;8435;52.184;5.406;2023-04-29T03:56:54;12.80;99.90
16643;DHT22;8435;52.184;5.406;2023-04-29T03:59:22;12.80;99.90
16643;DHT22;8435;52.184;5.406;2023-04-29T04:01:48;12.80;99.90
16643;DHT22;8435;52.184;5.406;2023-04-29T04:04:18;12.80;99.90
16643;DHT22;8435;52.184;5.406;2023-04-29T04:06:45;12.80;99.90
16643;DHT22;8435;52.184;5.406;2023-04-29T04:09:16;12.80;99.90
16643;DHT22;8435;52.184;5.406;2023-04-29T04:11:42;12.80;99.90
16643;DHT22;8435;52.184;5.406;2023-04-29T04:14:10;12.80;99.90
16643;DHT22;8435;52.184;5.406;2023-04-29T04:16:38;12.80;99.90
16643;DHT22;8435;52.184;5.406;2023-04-29T04:19:05;12.80;99.90
16643;DHT22;8435;52.184;5.406;2023-04-29T04:21:31;12.80;99.90
16643;DHT22;8435;52.184;5.406;2023-04-29T04:23:59;12.80;99.90
16643;DHT22;8435;52.184;5.406;2023-04-29T04:26:25;12.80;99.90
16643;DHT22;8435;52.184;5.406;2023-04-29T04:28:52;12.80;99.90
16643;DHT22;8435;52.184;5.406;2023-04-29T04:31:19;12.70;99.90
16643;DHT22;8435;52.184;5.406;2023-04-29T04:33:47;12.70;99.90
16643;DHT22;8435;52.184;5.406;2023-04-29T04:36:14;12.80;99.90
16643;DHT22;8435;52.184;5.406;2023-04-29T04:38:41;12.80;99.90
16643;DHT22;8435;52.184;5.406;2023-04-29T04:41:10;12.80;99.90
16643;DHT22;8435;52.184;5.406;2023-04-29T04:43:37;12.70;99.90
16643;DHT22;8435;52.184;5.406;2023-04-29T04:46:12;12.80;99.90
16643;DHT22;8435;52.184;5.406;2023-04-29T04:48:39;12.80;99.90
16643;DHT22;8435;52.184;5.406;2023-04-29T04:51:11;12.80;99.90
16643;DHT22;8435;52.184;5.406;2023-04-29T04:53:39;12.80;99.90
16643;DHT22;8435;52.184;5.406;2023-04-29T04:56:06;12.80;99.90
16643;DHT22;8435;52.184;5.406;2023-04-29T04:58:33;12.80;99.90
16643;DHT22;8435;52.184;5.406;2023-04-29T05:01:00;12.80;99.90
16643;DHT22;8435;52.184;5.406;2023-04-29T05:03:27;12.80;99.90
16643;DHT22;8435;52.184;5.406;2023-04-29T05:05:54;12.80;99.90
16643;DHT22;8435;52.184;5.406;2023-04-29T05:08:22;12.90;99.90
16643;DHT22;8435;52.184;5.406;2023-04-29T05:10:49;12.80;99.90
16643;DHT22;8435;52.184;5.406;2023-04-29T05:13:17;12.80;99.90
16643;DHT22;8435;52.184;5.406;2023-04-29T05:15:44;12.90;99.90
16643;DHT22;8435;52.184;5.406;2023-04-29T05:18:11;12.90;99.90
16643;DHT22;8435;52.184;5.406;2023-04-29T05:20:38;12.90;99.90
16643;DHT22;8435;52.184;5.406;2023-04-29T05:23:05;12.90;99.90
16643;DHT22;8435;52.184;5.406;2023-04-29T05:25:33;13.00;99.90
16643;DHT22;8435;52.184;5.406;2023-04-29T05:28:01;13.00;99.90
16643;DHT22;8435;52.184;5.406;2023-04-29T05:30:28;13.00;99.90
16643;DHT22;8435;52.184;5.406;2023-04-29T05:32:54;13.10;99.90
16643;DHT22;8435;52.184;5.406;2023-04-29T05:35:22;13.10;99.90
16643;DHT22;8435;52.184;5.406;2023-04-29T05:37:48;13.10;99.90
16643;DHT22;8435;52.184;5.406;2023-04-29T05:40:15;13.20;99.90
16643;DHT22;8435;52.184;5.406;2023-04-29T05:42:43;13.20;99.90
16643;DHT22;8435;52.184;5.406;2023-04-29T05:45:11;13.30;99.90
16643;DHT22;8435;52.184;5.406;2023-04-29T05:47:38;13.30;99.90
16643;DHT22;8435;52.184;5.406;2023-04-29T05:50:07;13.40;99.90
16643;DHT22;8435;52.184;5.406;2023-04-29T05:52:39;13.40;99.90
16643;DHT22;8435;52.184;5.406;2023-04-29T05:55:06;13.50;99.90
16643;DHT22;8435;52.184;5.406;2023-04-29T05:57:33;13.60;99.90
16643;DHT22;8435;52.184;5.406;2023-04-29T06:00:01;13.60;99.90
16643;DHT22;8435;52.184;5.406;2023-04-29T06:02:28;13.70;99.90
16643;DHT22;8435;52.184;5.406;2023-04-29T06:04:55;13.80;99.90
16643;DHT22;8435;52.184;5.406;2023-04-29T06:07:23;13.90;99.90
16643;DHT22;8435;52.184;5.406;2023-04-29T06:09:51;13.90;99.90
16643;DHT22;8435;52.184;5.406;2023-04-29T06:12:19;14.00;99.90
16643;DHT22;8435;52.184;5.406;2023-04-29T06:14:49;14.00;99.90
16643;DHT22;8435;52.184;5.406;2023-04-29T06:17:17;14.00;99.90
16643;DHT22;8435;52.184;5.406;2023-04-29T06:19:43;14.10;99.90
16643;DHT22;8435;52.184;5.406;2023-04-29T06:22:10;14.00;99.90
16643;DHT22;8435;52.184;5.406;2023-04-29T06:24:37;14.00;99.90
16643;DHT22;8435;52.184;5.406;2023-04-29T06:27:04;14.10;99.90
16643;DHT22;8435;52.184;5.406;2023-04-29T06:29:31;14.10;99.90
16643;DHT22;8435;52.184;5.406;2023-04-29T06:31:58;14.20;99.90
16643;DHT22;8435;52.184;5.406;2023-04-29T06:34:29;14.20;99.90
16643;DHT22;8435;52.184;5.406;2023-04-29T06:36:56;14.20;99.90
16643;DHT22;8435;52.184;5.406;2023-04-29T06:39:26;14.20;99.90
16643;DHT22;8435;52.184;5.406;2023-04-29T06:41:52;14.30;99.90
16643;DHT22;8435;52.184;5.406;2023-04-29T06:44:19;14.30;99.90
16643;DHT22;8435;52.184;5.406;2023-04-29T06:46:46;14.30;99.90
16643;DHT22;8435;52.184;5.406;2023-04-29T06:49:13;14.40;99.90
16643;DHT22;8435;52.184;5.406;2023-04-29T06:51:41;14.40;99.90
16643;DHT22;8435;52.184;5.406;2023-04-29T06:54:08;14.50;99.90
16643;DHT22;8435;52.184;5.406;2023-04-29T06:56:35;14.50;99.90
16643;DHT22;8435;52.184;5.406;2023-04-29T06:59:02;14.70;99.90
16643;DHT22;8435;52.184;5.406;2023-04-29T07:01:29;14.80;99.90
16643;DHT22;8435;52.184;5.406;2023-04-29T07:03:55;15.00;99.90
16643;DHT22;8435;52.184;5.406;2023-04-29T07:06:22;15.20;99.90
16643;DHT22;8435;52.184;5.406;2023-04-29T07:08:50;15.30;99.90
16643;DHT22;8435;52.184;5.406;2023-04-29T07:11:17;15.40;99.90
16643;DHT22;8435;52.184;5.406;2023-04-29T07:13:46;15.60;99.90
16643;DHT22;8435;52.184;5.406;2023-04-29T07:16:16;15.70;99.70
16643;DHT22;8435;52.184;5.406;2023-04-29T07:18:47;15.80;99.30
16643;DHT22;8435;52.184;5.406;2023-04-29T07:21:14;16.00;99.10
16643;DHT22;8435;52.184;5.406;2023-04-29T07:23:40;16.00;98.70
16643;DHT22;8435;52.184;5.406;2023-04-29T07:26:13;16.00;98.60
16643;DHT22;8435;52.184;5.406;2023-04-29T07:28:40;16.10;98.60
16643;DHT22;8435;52.184;5.406;2023-04-29T07:31:07;16.30;99.00
16643;DHT22;8435;52.184;5.406;2023-04-29T07:33:35;16.40;98.80
16643;DHT22;8435;52.184;5.406;2023-04-29T07:36:02;16.50;98.50
16643;DHT22;8435;52.184;5.406;2023-04-29T07:38:29;16.80;98.20
16643;DHT22;8435;52.184;5.406;2023-04-29T07:40:56;17.00;98.00
16643;DHT22;8435;52.184;5.406;2023-04-29T07:43:24;17.20;98.10
16643;DHT22;8435;52.184;5.406;2023-04-29T07:45:51;17.40;97.70
16643;DHT22;8435;52.184;5.406;2023-04-29T07:48:20;17.70;97.90
16643;DHT22;8435;52.184;5.406;2023-04-29T07:50:48;17.90;97.40
16643;DHT22;8435;52.184;5.406;2023-04-29T07:53:15;18.30;97.60
16643;DHT22;8435;52.184;5.406;2023-04-29T07:55:42;18.60;97.30
16643;DHT22;8435;52.184;5.406;2023-04-29T07:58:09;18.90;96.70
16643;DHT22;8435;52.184;5.406;2023-04-29T08:00:37;19.20;96.00
16643;DHT22;8435;52.184;5.406;2023-04-29T08:03:04;19.40;95.10
16643;DHT22;8435;52.184;5.406;2023-04-29T08:05:31;19.50;94.90
16643;DHT22;8435;52.184;5.406;2023-04-29T08:07:57;19.60;94.20
16643;DHT22;8435;52.184;5.406;2023-04-29T08:10:24;19.60;94.10
16643;DHT22;8435;52.184;5.406;2023-04-29T08:12:51;19.60;94.20
16643;DHT22;8435;52.184;5.406;2023-04-29T08:15:18;19.70;94.70
16643;DHT22;8435;52.184;5.406;2023-04-29T08:17:46;19.90;94.60
16643;DHT22;8435;52.184;5.406;2023-04-29T08:20:13;20.10;94.00
16643;DHT22;8435;52.184;5.406;2023-04-29T08:22:40;20.30;94.30
16643;DHT22;8435;52.184;5.406;2023-04-29T08:25:08;20.60;93.90
16643;DHT22;8435;52.184;5.406;2023-04-29T08:27:35;20.80;93.80
16643;DHT22;8435;52.184;5.406;2023-04-29T08:30:03;21.00;93.20
16643;DHT22;8435;52.184;5.406;2023-04-29T08:32:29;21.30;92.50
16643;DHT22;8435;52.184;5.406;2023-04-29T08:34:58;21.50;91.60
16643;DHT22;8435;52.184;5.406;2023-04-29T08:37:25;21.60;90.40
16643;DHT22;8435;52.184;5.406;2023-04-29T08:39:52;21.70;90.90
16643;DHT22;8435;52.184;5.406;2023-04-29T08:42:25;21.70;90.40
16643;DHT22;8435;52.184;5.406;2023-04-29T08:45:01;21.70;89.50
16643;DHT22;8435;52.184;5.406;2023-04-29T08:47:31;21.60;89.60
16643;DHT22;8435;52.184;5.406;2023-04-29T08:50:02;21.70;89.80
16643;DHT22;8435;52.184;5.406;2023-04-29T08:52:33;21.70;88.90
16643;DHT22;8435;52.184;5.406;2023-04-29T08:55:01;21.70;89.50
16643;DHT22;8435;52.184;5.406;2023-04-29T08:57:34;21.80;89.40
16643;DHT22;8435;52.184;5.406;2023-04-29T09:00:06;21.80;87.60
16643;DHT22;8435;52.184;5.406;2023-04-29T09:02:39;21.90;86.60
16643;DHT22;8435;52.184;5.406;2023-04-29T09:05:09;22.00;85.80
16643;DHT22;8435;52.184;5.406;2023-04-29T09:07:37;22.00;86.00
16643;DHT22;8435;52.184;5.406;2023-04-29T09:10:05;22.10;84.80
16643;DHT22;8435;52.184;5.406;2023-04-29T09:12:33;22.10;84.70
16643;DHT22;8435;52.184;5.406;2023-04-29T09:15:00;22.10;85.40
16643;DHT22;8435;52.184;5.406;2023-04-29T09:17:48;22.20;84.20
16643;DHT22;8435;52.184;5.406;2023-04-29T09:20:29;22.20;82.80
16643;DHT22;8435;52.184;5.406;2023-04-29T09:22:58;22.20;82.20
16643;DHT22;8435;52.184;5.406;2023-04-29T09:25:25;22.10;81.70
16643;DHT22;8435;52.184;5.406;2023-04-29T09:27:55;22.10;81.80
16643;DHT22;8435;52.184;5.406;2023-04-29T09:30:23;22.00;82.50
16643;DHT22;8435;52.184;5.406;2023-04-29T09:33:05;22.00;83.30
16643;DHT22;8435;52.184;5.406;2023-04-29T09:35:33;21.90;82.20
16643;DHT22;8435;52.184;5.406;2023-04-29T09:38:11;22.00;82.00
16643;DHT22;8435;52.184;5.406;2023-04-29T09:40:42;22.00;80.40
16643;DHT22;8435;52.184;5.406;2023-04-29T09:43:13;22.00;80.50
16643;DHT22;8435;52.184;5.406;2023-04-29T09:45:45;21.90;79.30
16643;DHT22;8435;52.184;5.406;2023-04-29T09:48:12;21.90;81.00
16643;DHT22;8435;52.184;5.406;2023-04-29T09:50:43;22.00;81.80
16643;DHT22;8435;52.184;5.406;2023-04-29T09:53:33;22.00;79.80
16643;DHT22;8435;52.184;5.406;2023-04-29T09:56:02;21.90;78.60
16643;DHT22;8435;52.184;5.406;2023-04-29T09:58:31;21.90;79.70
16643;DHT22;8435;52.184;5.406;2023-04-29T10:01:02;21.90;80.10
16643;DHT22;8435;52.184;5.406;2023-04-29T10:03:31;21.80;79.70
16643;DHT22;8435;52.184;5.406;2023-04-29T10:06:02;21.70;79.90
16643;DHT22;8435;52.184;5.406;2023-04-29T10:08:30;21.50;79.60
16643;DHT22;8435;52.184;5.406;2023-04-29T10:10:59;21.40;80.30
16643;DHT22;8435;52.184;5.406;2023-04-29T10:13:26;21.30;79.90
16643;DHT22;8435;52.184;5.406;2023-04-29T10:15:59;21.20;80.10
16643;DHT22;8435;52.184;5.406;2023-04-29T10:18:34;21.00;79.60
16643;DHT22;8435;52.184;5.406;2023-04-29T10:21:06;20.90;79.70
16643;DHT22;8435;52.184;5.406;2023-04-29T10:23:33;20.80;80.10
16643;DHT22;8435;52.184;5.406;2023-04-29T10:26:03;20.80;81.50
16643;DHT22;8435;52.184;5.406;2023-04-29T10:28:31;20.70;80.80
16643;DHT22;8435;52.184;5.406;2023-04-29T10:31:00;20.60;80.80
16643;DHT22;8435;52.184;5.406;2023-04-29T10:33:30;20.60;80.10
16643;DHT22;8435;52.184;5.406;2023-04-29T10:35:58;20.50;80.20
16643;DHT22;8435;52.184;5.406;2023-04-29T10:38:32;20.40;80.90
16643;DHT22;8435;52.184;5.406;2023-04-29T10:41:06;20.30;80.10
16643;DHT22;8435;52.184;5.406;2023-04-29T10:43:33;20.20;80.10
16643;DHT22;8435;52.184;5.406;2023-04-29T10:46:17;20.10;81.10
16643;DHT22;8435;52.184;5.406;2023-04-29T10:48:44;20.00;80.40
16643;DHT22;8435;52.184;5.406;2023-04-29T10:51:11;19.90;81.40
16643;DHT22;8435;52.184;5.406;2023-04-29T10:53:58;19.80;82.40
16643;DHT22;8435;52.184;5.406;2023-04-29T10:56:38;19.80;81.40
16643;DHT22;8435;52.184;5.406;2023-04-29T10:59:07;19.70;81.50
16643;DHT22;8435;52.184;5.406;2023-04-29T11:01:46;19.60;82.70
16643;DHT22;8435;52.184;5.406;2023-04-29T11:04:13;19.60;81.70
16643;DHT22;8435;52.184;5.406;2023-04-29T11:06:45;19.60;82.70
16643;DHT22;8435;52.184;5.406;2023-04-29T11:09:18;19.60;82.50
16643;DHT22;8435;52.184;5.406;2023-04-29T11:12:01;19.50;82.20
16643;DHT22;8435;52.184;5.406;2023-04-29T11:14:32;19.40;82.30
16643;DHT22;8435;52.184;5.406;2023-04-29T11:17:03;19.40;83.80
16643;DHT22;8435;52.184;5.406;2023-04-29T11:19:39;19.40;83.90
16643;DHT22;8435;52.184;5.406;2023-04-29T11:22:12;19.40;83.00
16643;DHT22;8435;52.184;5.406;2023-04-29T11:24:52;19.40;82.70
16643;DHT22;8435;52.184;5.406;2023-04-29T11:27:20;19.40;83.80
16643;DHT22;8435;52.184;5.406;2023-04-29T11:29:50;19.40;83.00
16643;DHT22;8435;52.184;5.406;2023-04-29T11:32:20;19.40;83.90
16643;DHT22;8435;52.184;5.406;2023-04-29T11:34:47;19.40;83.80
16643;DHT22;8435;52.184;5.406;2023-04-29T11:37:25;19.40;84.20
16643;DHT22;8435;52.184;5.406;2023-04-29T11:39:59;19.40;83.50
16643;DHT22;8435;52.184;5.406;2023-04-29T11:42:29;19.40;83.90
16643;DHT22;8435;52.184;5.406;2023-04-29T11:44:56;19.50;83.30
16643;DHT22;8435;52.184;5.406;2023-04-29T11:47:28;19.50;83.70
16643;DHT22;8435;52.184;5.406;2023-04-29T11:50:02;19.50;84.30
16643;DHT22;8435;52.184;5.406;2023-04-29T11:52:29;19.50;83.60
16643;DHT22;8435;52.184;5.406;2023-04-29T11:54:58;19.60;84.60
16643;DHT22;8435;52.184;5.406;2023-04-29T11:57:30;19.60;83.80
16643;DHT22;8435;52.184;5.406;2023-04-29T11:59:57;19.60;83.60
16643;DHT22;8435;52.184;5.406;2023-04-29T12:02:28;19.60;84.60
16643;DHT22;8435;52.184;5.406;2023-04-29T12:04:58;19.60;84.40
16643;DHT22;8435;52.184;5.406;2023-04-29T12:07:26;19.70;83.70
16643;DHT22;8435;52.184;5.406;2023-04-29T12:09:54;19.70;84.20
16643;DHT22;8435;52.184;5.406;2023-04-29T12:12:23;19.70;84.00
16643;DHT22;8435;52.184;5.406;2023-04-29T12:14:52;19.70;83.40
16643;DHT22;8435;52.184;5.406;2023-04-29T12:17:19;19.70;83.40
16643;DHT22;8435;52.184;5.406;2023-04-29T12:19:46;19.80;83.70
16643;DHT22;8435;52.184;5.406;2023-04-29T12:22:13;19.70;83.40
16643;DHT22;8435;52.184;5.406;2023-04-29T12:24:40;19.70;83.60
16643;DHT22;8435;52.184;5.406;2023-04-29T12:27:08;19.70;83.50
16643;DHT22;8435;52.184;5.406;2023-04-29T12:29:37;19.70;83.00
16643;DHT22;8435;52.184;5.406;2023-04-29T12:32:05;19.70;83.10
16643;DHT22;8435;52.184;5.406;2023-04-29T12:34:33;19.70;83.00
16643;DHT22;8435;52.184;5.406;2023-04-29T12:37:00;19.70;82.70
16643;DHT22;8435;52.184;5.406;2023-04-29T12:39:27;19.70;82.80
16643;DHT22;8435;52.184;5.406;2023-04-29T12:41:56;19.70;83.00
16643;DHT22;8435;52.184;5.406;2023-04-29T12:44:23;19.70;82.70
16643;DHT22;8435;52.184;5.406;2023-04-29T12:46:51;19.80;82.40
16643;DHT22;8435;52.184;5.406;2023-04-29T12:49:18;19.70;81.30
16643;DHT22;8435;52.184;5.406;2023-04-29T12:51:46;19.70;81.70
16643;DHT22;8435;52.184;5.406;2023-04-29T12:54:15;19.70;81.60
16643;DHT22;8435;52.184;5.406;2023-04-29T12:56:42;19.70;81.80
16643;DHT22;8435;52.184;5.406;2023-04-29T12:59:09;19.60;82.40
16643;DHT22;8435;52.184;5.406;2023-04-29T13:01:36;19.60;81.80
16643;DHT22;8435;52.184;5.406;2023-04-29T13:04:10;19.60;81.40
16643;DHT22;8435;52.184;5.406;2023-04-29T13:06:37;19.60;80.90
16643;DHT22;8435;52.184;5.406;2023-04-29T13:09:05;19.60;81.20
16643;DHT22;8435;52.184;5.406;2023-04-29T13:11:36;19.60;81.20
16643;DHT22;8435;52.184;5.406;2023-04-29T13:14:03;19.60;81.60
16643;DHT22;8435;52.184;5.406;2023-04-29T13:16:31;19.60;81.80
16643;DHT22;8435;52.184;5.406;2023-04-29T13:18:58;19.60;81.60
16643;DHT22;8435;52.184;5.406;2023-04-29T13:21:29;19.60;81.40
16643;DHT22;8435;52.184;5.406;2023-04-29T13:23:56;19.70;81.20
16643;DHT22;8435;52.184;5.406;2023-04-29T13:26:25;19.70;81.40
16643;DHT22;8435;52.184;5.406;2023-04-29T13:28:52;19.70;81.00
16643;DHT22;8435;52.184;5.406;2023-04-29T13:31:19;19.70;81.10
16643;DHT22;8435;52.184;5.406;2023-04-29T13:33:47;19.70;80.60
16643;DHT22;8435;52.184;5.406;2023-04-29T13:36:14;19.70;80.60
16643;DHT22;8435;52.184;5.406;2023-04-29T13:38:42;19.70;80.80
16643;DHT22;8435;52.184;5.406;2023-04-29T13:41:09;19.60;80.60
16643;DHT22;8435;52.184;5.406;2023-04-29T13:43:35;19.60;80.80
16643;DHT22;8435;52.184;5.406;2023-04-29T13:46:02;19.60;80.40
16643;DHT22;8435;52.184;5.406;2023-04-29T13:48:29;19.60;80.50
16643;DHT22;8435;52.184;5.406;2023-04-29T13:50:56;19.60;79.90
16643;DHT22;8435;52.184;5.406;2023-04-29T13:53:23;19.50;80.20
16643;DHT22;8435;52.184;5.406;2023-04-29T13:55:51;19.50;79.90
16643;DHT22;8435;52.184;5.406;2023-04-29T13:58:18;19.40;79.80
16643;DHT22;8435;52.184;5.406;2023-04-29T14:00:48;19.40;79.80
16643;DHT22;8435;52.184;5.406;2023-04-29T14:03:17;19.30;80.00
16643;DHT22;8435;52.184;5.406;2023-04-29T14:05:44;19.30;80.20
16643;DHT22;8435;52.184;5.406;2023-04-29T14:08:11;19.20;80.00
16643;DHT22;8435;52.184;5.406;2023-04-29T14:10:40;19.30;79.80
16643;DHT22;8435;52.184;5.406;2023-04-29T14:13:08;19.20;79.80
16643;DHT22;8435;52.184;5.406;2023-04-29T14:15:35;19.20;79.30
16643;DHT22;8435;52.184;5.406;2023-04-29T14:18:03;19.10;79.40
16643;DHT22;8435;52.184;5.406;2023-04-29T14:20:32;19.10;79.50
16643;DHT22;8435;52.184;5.406;2023-04-29T14:22:59;19.10;80.20
16643;DHT22;8435;52.184;5.406;2023-04-29T14:25:26;19.10;80.20
16643;DHT22;8435;52.184;5.406;2023-04-29T14:27:55;19.00;80.10
16643;DHT22;8435;52.184;5.406;2023-04-29T14:30:23;19.00;79.60
16643;DHT22;8435;52.184;5.406;2023-04-29T14:32:50;18.90;80.00
16643;DHT22;8435;52.184;5.406;2023-04-29T14:35:17;19.00;80.40
16643;DHT22;8435;52.184;5.406;2023-04-29T14:37:44;19.00;80.10
16643;DHT22;8435;52.184;5.406;2023-04-29T14:40:11;18.90;79.70
16643;DHT22;8435;52.184;5.406;2023-04-29T14:42:38;18.90;79.30
16643;DHT22;8435;52.184;5.406;2023-04-29T14:45:06;19.00;79.00
16643;DHT22;8435;52.184;5.406;2023-04-29T14:47:35;18.90;78.80
16643;DHT22;8435;52.184;5.406;2023-04-29T14:50:02;18.90;78.40
16643;DHT22;8435;52.184;5.406;2023-04-29T14:52:29;18.90;78.70
16643;DHT22;8435;52.184;5.406;2023-04-29T14:54:56;18.90;79.40
16643;DHT22;8435;52.184;5.406;2023-04-29T14:57:22;18.90;79.10
16643;DHT22;8435;52.184;5.406;2023-04-29T14:59:49;18.90;79.40
16643;DHT22;8435;52.184;5.406;2023-04-29T15:02:18;18.90;79.00
16643;DHT22;8435;52.184;5.406;2023-04-29T15:04:48;18.80;79.30
16643;DHT22;8435;52.184;5.406;2023-04-29T15:07:15;18.80;79.10
16643;DHT22;8435;52.184;5.406;2023-04-29T15:09:41;18.80;79.30
16643;DHT22;8435;52.184;5.406;2023-04-29T15:12:12;18.80;78.90
16643;DHT22;8435;52.184;5.406;2023-04-29T15:14:38;18.80;78.70
16643;DHT22;8435;52.184;5.406;2023-04-29T15:17:05;18.70;79.50
16643;DHT22;8435;52.184;5.406;2023-04-29T15:19:32;18.70;79.20
16643;DHT22;8435;52.184;5.406;2023-04-29T15:22:01;18.70;79.20
16643;DHT22;8435;52.184;5.406;2023-04-29T15:24:28;18.60;79.30
16643;DHT22;8435;52.184;5.406;2023-04-29T15:26:57;18.60;79.50
16643;DHT22;8435;52.184;5.406;2023-04-29T15:29:24;18.60;79.40
16643;DHT22;8435;52.184;5.406;2023-04-29T15:31:53;18.60;79.40
16643;DHT22;8435;52.184;5.406;2023-04-29T15:34:21;18.60;79.60
16643;DHT22;8435;52.184;5.406;2023-04-29T15:36:48;18.50;79.60
16643;DHT22;8435;52.184;5.406;2023-04-29T15:39:17;18.50;79.80
16643;DHT22;8435;52.184;5.406;2023-04-29T15:41:46;18.50;79.50
16643;DHT22;8435;52.184;5.406;2023-04-29T15:44:13;18.50;79.90
16643;DHT22;8435;52.184;5.406;2023-04-29T15:46:40;18.40;79.70
16643;DHT22;8435;52.184;5.406;2023-04-29T15:49:07;18.40;79.80
16643;DHT22;8435;52.184;5.406;2023-04-29T15:51:33;18.40;79.80
16643;DHT22;8435;52.184;5.406;2023-04-29T15:54:00;18.40;79.70